HEGN Airport Information

Runway Information
Runway 16 Length 13124 ft width 148 ft
Elevation 50 ft Threshold 985 ft Heading 165
Runway 34 Length 13124 ft Width 148 ft
Elevation 35 ft Threshold 0 ft Heading 345
Airport Frequencies
Type APP Name RADAR Frequency 123.4 MHZ
Type GND Name GND Frequency 121.9 MHZ
Type RDO Name RDO Frequency 585.9 MHZ
Type TWR Name TWR Frequency 119.6 MHZ
Airport Navaids
Type VOR-DME Name Hurghada Frequency 116500 KHZ
Airport Weather Information & NOTAM
ADDS - METARS form results

(0615 UTC 29 November 2021)
Data provider http://aviationweather.gov/metar/data/
 
Forecast for: HEGN (HURGUADA , EG)
Text: TAF HEGN 290500Z 2906/3012 31010KT CAVOK
Forecast period: 0600 UTC 29 November 2021 to 1200 UTC 30 November 2021
Forecast type: FROM: standard forecast or significant change
Winds: from the NW (310 degrees) at 12 MPH (10 knots; 5.1 m/s)
Visibility: 6 or more miles (10+ km)
Ceiling: unknown
Clouds: missing
Weather: NSW  (no significant weather)